Welcome to the New NWS' Forecast!
Most changes are behind the scenes, but click here for differences you might notice.

Terminal Aerodrome Forecast (TAF)

Issued by National Weather Service (NWS)

                            
000
FTUS42 KMFL 160307 AAA
TAFMIA
TAF AMD
KMIA 160307Z 1603/1706 10009KT P6SM SCT025
     FM161500 10015KT P6SM SCT025
     FM170000 09011KT P6SM SCT025=